Terminal Aerodrome Forecast
Issued by NWS Atlanta, GA

Home | Current Version | Previous Version | Text Only | Print | Product List | Glossary On
Versions: 1 2 3 4 5 6 7 8 9 10 11 12 13 14 15 16 17 18 19 20
000
FTUS42 KFFC 252337
TAFMCN
TAF
KMCN 252337Z 2600/2624 29010G16KT P6SM SKC
     FM260100 30010KT P6SM SKC
     FM260900 31004KT P6SM SKC
     FM261600 02004KT P6SM SKC
     FM262200 14005KT P6SM SCT250=

USA.gov is the U.S. government's official web portal to all federal, state and local government web resources and services.